sensor_id;sensor_type;location;lat;lon;timestamp;P1;durP1;ratioP1;P2;durP2;ratioP2
55497;SDS011;41357;52.806;18.268;2022-08-01T00:00:24;5.88;;;3.58;;
55497;SDS011;41357;52.806;18.268;2022-08-01T00:02:50;6.13;;;4.45;;
55497;SDS011;41357;52.806;18.268;2022-08-01T00:05:16;5.63;;;4.00;;
55497;SDS011;41357;52.806;18.268;2022-08-01T00:07:42;10.93;;;4.00;;
55497;SDS011;41357;52.806;18.268;2022-08-01T00:10:12;6.95;;;4.22;;
55497;SDS011;41357;52.806;18.268;2022-08-01T00:12:39;6.33;;;3.93;;
55497;SDS011;41357;52.806;18.268;2022-08-01T00:15:05;8.00;;;3.90;;
55497;SDS011;41357;52.806;18.268;2022-08-01T00:17:32;5.68;;;4.00;;
55497;SDS011;41357;52.806;18.268;2022-08-01T00:19:58;5.80;;;3.92;;
55497;SDS011;41357;52.806;18.268;2022-08-01T00:22:24;6.35;;;3.90;;
55497;SDS011;41357;52.806;18.268;2022-08-01T00:24:50;6.95;;;3.88;;
55497;SDS011;41357;52.806;18.268;2022-08-01T00:27:16;8.10;;;4.03;;
55497;SDS011;41357;52.806;18.268;2022-08-01T00:29:43;7.82;;;3.72;;
55497;SDS011;41357;52.806;18.268;2022-08-01T00:32:09;15.68;;;4.80;;
55497;SDS011;41357;52.806;18.268;2022-08-01T00:34:35;6.93;;;5.05;;
55497;SDS011;41357;52.806;18.268;2022-08-01T00:37:01;6.65;;;4.18;;
55497;SDS011;41357;52.806;18.268;2022-08-01T00:39:27;8.55;;;4.15;;
55497;SDS011;41357;52.806;18.268;2022-08-01T00:41:53;8.13;;;4.65;;
55497;SDS011;41357;52.806;18.268;2022-08-01T00:44:19;8.20;;;4.38;;
55497;SDS011;41357;52.806;18.268;2022-08-01T00:46:45;6.90;;;3.80;;
55497;SDS011;41357;52.806;18.268;2022-08-01T00:49:12;7.55;;;4.10;;
55497;SDS011;41357;52.806;18.268;2022-08-01T00:51:38;13.40;;;5.07;;
55497;SDS011;41357;52.806;18.268;2022-08-01T00:54:04;7.53;;;4.47;;
55497;SDS011;41357;52.806;18.268;2022-08-01T00:56:30;8.25;;;4.85;;
55497;SDS011;41357;52.806;18.268;2022-08-01T00:58:57;6.13;;;3.95;;
55497;SDS011;41357;52.806;18.268;2022-08-01T01:01:23;7.75;;;3.88;;
55497;SDS011;41357;52.806;18.268;2022-08-01T01:03:50;6.90;;;3.92;;
55497;SDS011;41357;52.806;18.268;2022-08-01T01:14:08;9.75;;;4.35;;
55497;SDS011;41357;52.806;18.268;2022-08-01T01:16:36;7.38;;;4.30;;
55497;SDS011;41357;52.806;18.268;2022-08-01T01:19:04;13.13;;;3.95;;
55497;SDS011;41357;52.806;18.268;2022-08-01T01:29:30;9.43;;;4.30;;
55497;SDS011;41357;52.806;18.268;2022-08-01T01:34:27;6.15;;;3.85;;
55497;SDS011;41357;52.806;18.268;2022-08-01T01:36:54;7.25;;;4.63;;
55497;SDS011;41357;52.806;18.268;2022-08-01T01:39:20;10.27;;;4.50;;
55497;SDS011;41357;52.806;18.268;2022-08-01T01:41:48;9.88;;;4.82;;
55497;SDS011;41357;52.806;18.268;2022-08-01T01:44:15;10.43;;;4.05;;
55497;SDS011;41357;52.806;18.268;2022-08-01T01:46:41;9.27;;;4.85;;
55497;SDS011;41357;52.806;18.268;2022-08-01T01:49:08;11.80;;;4.63;;
55497;SDS011;41357;52.806;18.268;2022-08-01T01:51:35;10.60;;;5.05;;
55497;SDS011;41357;52.806;18.268;2022-08-01T01:54:02;10.38;;;5.00;;
55497;SDS011;41357;52.806;18.268;2022-08-01T01:56:30;5.88;;;4.63;;
55497;SDS011;41357;52.806;18.268;2022-08-01T01:58:57;9.48;;;5.07;;
55497;SDS011;41357;52.806;18.268;2022-08-01T02:01:25;6.13;;;4.65;;
55497;SDS011;41357;52.806;18.268;2022-08-01T02:03:52;10.70;;;4.20;;
55497;SDS011;41357;52.806;18.268;2022-08-01T02:06:20;10.13;;;4.45;;
55497;SDS011;41357;52.806;18.268;2022-08-01T02:08:47;7.68;;;4.05;;
55497;SDS011;41357;52.806;18.268;2022-08-01T02:11:13;6.10;;;4.32;;
55497;SDS011;41357;52.806;18.268;2022-08-01T02:13:43;12.10;;;5.85;;
55497;SDS011;41357;52.806;18.268;2022-08-01T02:16:09;9.05;;;5.45;;
55497;SDS011;41357;52.806;18.268;2022-08-01T02:18:36;6.80;;;4.90;;
55497;SDS011;41357;52.806;18.268;2022-08-01T02:21:04;6.68;;;4.22;;
55497;SDS011;41357;52.806;18.268;2022-08-01T02:23:31;7.53;;;4.70;;
55497;SDS011;41357;52.806;18.268;2022-08-01T02:25:58;6.97;;;4.97;;
55497;SDS011;41357;52.806;18.268;2022-08-01T02:28:30;9.15;;;4.60;;
55497;SDS011;41357;52.806;18.268;2022-08-01T02:31:02;9.35;;;4.63;;
55497;SDS011;41357;52.806;18.268;2022-08-01T02:33:36;6.63;;;4.40;;
55497;SDS011;41357;52.806;18.268;2022-08-01T02:36:03;7.18;;;4.53;;
55497;SDS011;41357;52.806;18.268;2022-08-01T02:38:31;15.68;;;4.82;;
55497;SDS011;41357;52.806;18.268;2022-08-01T02:40:58;6.07;;;4.60;;
55497;SDS011;41357;52.806;18.268;2022-08-01T02:43:26;8.77;;;4.35;;
55497;SDS011;41357;52.806;18.268;2022-08-01T02:45:56;11.23;;;4.40;;
55497;SDS011;41357;52.806;18.268;2022-08-01T02:48:24;7.70;;;4.50;;
55497;SDS011;41357;52.806;18.268;2022-08-01T02:50:51;11.50;;;4.97;;
55497;SDS011;41357;52.806;18.268;2022-08-01T02:53:19;10.80;;;3.80;;
55497;SDS011;41357;52.806;18.268;2022-08-01T02:55:46;9.05;;;4.75;;
55497;SDS011;41357;52.806;18.268;2022-08-01T02:58:16;6.63;;;4.55;;
55497;SDS011;41357;52.806;18.268;2022-08-01T03:00:44;6.65;;;4.72;;
55497;SDS011;41357;52.806;18.268;2022-08-01T03:03:10;7.72;;;3.83;;
55497;SDS011;41357;52.806;18.268;2022-08-01T03:05:37;8.75;;;5.35;;
55497;SDS011;41357;52.806;18.268;2022-08-01T03:08:05;10.15;;;5.13;;
55497;SDS011;41357;52.806;18.268;2022-08-01T03:10:32;6.55;;;4.57;;
55497;SDS011;41357;52.806;18.268;2022-08-01T03:13:00;16.13;;;4.40;;
55497;SDS011;41357;52.806;18.268;2022-08-01T03:15:27;9.15;;;4.75;;
55497;SDS011;41357;52.806;18.268;2022-08-01T03:17:55;8.50;;;4.63;;
55497;SDS011;41357;52.806;18.268;2022-08-01T03:20:22;5.97;;;4.68;;
55497;SDS011;41357;52.806;18.268;2022-08-01T03:22:50;6.85;;;4.72;;
55497;SDS011;41357;52.806;18.268;2022-08-01T03:25:18;15.73;;;5.38;;
55497;SDS011;41357;52.806;18.268;2022-08-01T03:27:50;7.55;;;5.10;;
55497;SDS011;41357;52.806;18.268;2022-08-01T03:30:17;7.45;;;5.82;;
55497;SDS011;41357;52.806;18.268;2022-08-01T03:32:43;6.05;;;4.63;;
55497;SDS011;41357;52.806;18.268;2022-08-01T03:35:11;10.40;;;5.78;;
55497;SDS011;41357;52.806;18.268;2022-08-01T03:37:50;8.50;;;5.57;;
55497;SDS011;41357;52.806;18.268;2022-08-01T03:40:39;9.95;;;4.97;;
55497;SDS011;41357;52.806;18.268;2022-08-01T03:43:08;13.32;;;5.82;;
55497;SDS011;41357;52.806;18.268;2022-08-01T03:45:38;9.20;;;5.30;;
55497;SDS011;41357;52.806;18.268;2022-08-01T03:48:08;15.25;;;5.53;;
55497;SDS011;41357;52.806;18.268;2022-08-01T03:50:35;9.55;;;5.93;;
55497;SDS011;41357;52.806;18.268;2022-08-01T03:53:02;9.98;;;5.25;;
55497;SDS011;41357;52.806;18.268;2022-08-01T03:55:28;10.45;;;5.88;;
55497;SDS011;41357;52.806;18.268;2022-08-01T03:57:56;9.40;;;5.57;;
55497;SDS011;41357;52.806;18.268;2022-08-01T04:00:22;16.13;;;7.03;;
55497;SDS011;41357;52.806;18.268;2022-08-01T04:02:49;11.70;;;7.07;;
55497;SDS011;41357;52.806;18.268;2022-08-01T04:05:15;11.05;;;7.55;;
55497;SDS011;41357;52.806;18.268;2022-08-01T04:07:45;11.45;;;7.07;;
55497;SDS011;41357;52.806;18.268;2022-08-01T04:10:12;20.23;;;7.55;;
55497;SDS011;41357;52.806;18.268;2022-08-01T04:12:38;13.65;;;6.72;;
55497;SDS011;41357;52.806;18.268;2022-08-01T04:15:04;11.63;;;7.38;;
55497;SDS011;41357;52.806;18.268;2022-08-01T04:17:31;13.10;;;7.55;;
55497;SDS011;41357;52.806;18.268;2022-08-01T04:19:57;15.57;;;7.40;;
55497;SDS011;41357;52.806;18.268;2022-08-01T04:22:23;13.30;;;8.35;;
55497;SDS011;41357;52.806;18.268;2022-08-01T04:24:51;17.08;;;8.93;;
55497;SDS011;41357;52.806;18.268;2022-08-01T04:27:20;14.40;;;8.85;;
55497;SDS011;41357;52.806;18.268;2022-08-01T04:29:48;21.67;;;9.68;;
55497;SDS011;41357;52.806;18.268;2022-08-01T04:32:15;23.60;;;10.32;;
55497;SDS011;41357;52.806;18.268;2022-08-01T04:34:42;18.60;;;10.75;;
55497;SDS011;41357;52.806;18.268;2022-08-01T04:37:11;19.30;;;9.50;;
55497;SDS011;41357;52.806;18.268;2022-08-01T04:39:38;23.63;;;9.57;;
55497;SDS011;41357;52.806;18.268;2022-08-01T04:42:06;17.75;;;10.57;;
55497;SDS011;41357;52.806;18.268;2022-08-01T04:44:33;25.58;;;11.93;;
55497;SDS011;41357;52.806;18.268;2022-08-01T04:46:59;23.27;;;11.05;;
55497;SDS011;41357;52.806;18.268;2022-08-01T04:49:28;20.77;;;10.73;;
55497;SDS011;41357;52.806;18.268;2022-08-01T04:51:55;22.30;;;9.27;;
55497;SDS011;41357;52.806;18.268;2022-08-01T04:54:27;22.63;;;8.63;;
55497;SDS011;41357;52.806;18.268;2022-08-01T04:56:54;10.00;;;5.70;;
55497;SDS011;41357;52.806;18.268;2022-08-01T04:59:25;9.63;;;5.65;;
55497;SDS011;41357;52.806;18.268;2022-08-01T05:02:14;14.43;;;6.07;;
55497;SDS011;41357;52.806;18.268;2022-08-01T05:04:40;12.52;;;6.60;;
55497;SDS011;41357;52.806;18.268;2022-08-01T05:07:07;14.05;;;5.00;;
55497;SDS011;41357;52.806;18.268;2022-08-01T05:09:34;18.92;;;7.93;;
55497;SDS011;41357;52.806;18.268;2022-08-01T05:12:01;15.30;;;8.05;;
55497;SDS011;41357;52.806;18.268;2022-08-01T05:14:28;15.50;;;9.73;;
55497;SDS011;41357;52.806;18.268;2022-08-01T05:16:58;14.05;;;8.18;;
55497;SDS011;41357;52.806;18.268;2022-08-01T05:19:24;13.07;;;7.70;;
55497;SDS011;41357;52.806;18.268;2022-08-01T05:21:52;11.13;;;7.72;;
55497;SDS011;41357;52.806;18.268;2022-08-01T05:24:18;12.00;;;7.07;;
55497;SDS011;41357;52.806;18.268;2022-08-01T05:26:44;8.88;;;5.88;;
55497;SDS011;41357;52.806;18.268;2022-08-01T05:29:10;12.95;;;6.18;;
55497;SDS011;41357;52.806;18.268;2022-08-01T05:31:36;9.07;;;5.57;;
55497;SDS011;41357;52.806;18.268;2022-08-01T05:34:02;8.27;;;6.38;;
55497;SDS011;41357;52.806;18.268;2022-08-01T05:36:29;8.05;;;5.65;;
55497;SDS011;41357;52.806;18.268;2022-08-01T05:38:55;10.80;;;7.78;;
55497;SDS011;41357;52.806;18.268;2022-08-01T05:41:21;23.52;;;10.50;;
55497;SDS011;41357;52.806;18.268;2022-08-01T05:43:47;21.70;;;15.63;;
55497;SDS011;41357;52.806;18.268;2022-08-01T05:46:13;23.02;;;15.10;;
55497;SDS011;41357;52.806;18.268;2022-08-01T05:48:39;11.45;;;10.20;;
55497;SDS011;41357;52.806;18.268;2022-08-01T05:51:05;13.23;;;7.03;;
55497;SDS011;41357;52.806;18.268;2022-08-01T05:53:31;12.30;;;6.43;;
55497;SDS011;41357;52.806;18.268;2022-08-01T05:55:59;9.60;;;6.88;;
55497;SDS011;41357;52.806;18.268;2022-08-01T05:58:26;9.20;;;6.13;;
55497;SDS011;41357;52.806;18.268;2022-08-01T06:00:53;7.35;;;6.30;;
55497;SDS011;41357;52.806;18.268;2022-08-01T06:03:19;13.73;;;6.80;;
55497;SDS011;41357;52.806;18.268;2022-08-01T06:05:45;11.70;;;6.70;;
55497;SDS011;41357;52.806;18.268;2022-08-01T06:08:11;9.27;;;6.07;;
55497;SDS011;41357;52.806;18.268;2022-08-01T06:10:37;9.68;;;5.93;;
55497;SDS011;41357;52.806;18.268;2022-08-01T06:13:03;5.65;;;3.38;;
55497;SDS011;41357;52.806;18.268;2022-08-01T06:15:30;5.90;;;3.35;;
55497;SDS011;41357;52.806;18.268;2022-08-01T06:17:56;6.13;;;2.80;;
55497;SDS011;41357;52.806;18.268;2022-08-01T06:20:22;8.10;;;3.67;;
55497;SDS011;41357;52.806;18.268;2022-08-01T06:22:48;11.48;;;3.78;;
55497;SDS011;41357;52.806;18.268;2022-08-01T06:25:17;6.47;;;3.45;;
55497;SDS011;41357;52.806;18.268;2022-08-01T06:27:43;9.25;;;3.50;;
55497;SDS011;41357;52.806;18.268;2022-08-01T06:30:10;7.45;;;3.65;;
55497;SDS011;41357;52.806;18.268;2022-08-01T06:32:36;7.90;;;3.35;;
55497;SDS011;41357;52.806;18.268;2022-08-01T06:35:03;4.43;;;3.28;;
55497;SDS011;41357;52.806;18.268;2022-08-01T06:37:29;6.13;;;3.53;;
55497;SDS011;41357;52.806;18.268;2022-08-01T06:39:56;6.28;;;3.22;;
55497;SDS011;41357;52.806;18.268;2022-08-01T06:42:22;8.50;;;4.38;;
55497;SDS011;41357;52.806;18.268;2022-08-01T06:44:49;9.77;;;3.70;;
55497;SDS011;41357;52.806;18.268;2022-08-01T06:47:15;5.85;;;4.38;;
55497;SDS011;41357;52.806;18.268;2022-08-01T06:49:41;7.05;;;4.35;;
55497;SDS011;41357;52.806;18.268;2022-08-01T06:52:07;5.55;;;4.53;;
55497;SDS011;41357;52.806;18.268;2022-08-01T06:54:33;4.47;;;3.30;;
55497;SDS011;41357;52.806;18.268;2022-08-01T06:56:59;6.32;;;3.85;;
55497;SDS011;41357;52.806;18.268;2022-08-01T06:59:26;6.75;;;3.25;;
55497;SDS011;41357;52.806;18.268;2022-08-01T07:01:52;5.10;;;3.63;;
55497;SDS011;41357;52.806;18.268;2022-08-01T07:04:18;7.43;;;4.05;;
55497;SDS011;41357;52.806;18.268;2022-08-01T07:06:44;7.13;;;3.70;;
55497;SDS011;41357;52.806;18.268;2022-08-01T07:09:10;6.47;;;4.00;;
55497;SDS011;41357;52.806;18.268;2022-08-01T07:11:36;4.93;;;4.20;;
55497;SDS011;41357;52.806;18.268;2022-08-01T07:14:02;7.18;;;4.07;;
55497;SDS011;41357;52.806;18.268;2022-08-01T07:16:29;5.25;;;4.20;;
55497;SDS011;41357;52.806;18.268;2022-08-01T07:18:55;7.53;;;4.07;;
55497;SDS011;41357;52.806;18.268;2022-08-01T07:21:21;8.45;;;4.47;;
55497;SDS011;41357;52.806;18.268;2022-08-01T07:23:47;6.10;;;3.78;;
55497;SDS011;41357;52.806;18.268;2022-08-01T07:26:13;7.65;;;4.22;;
55497;SDS011;41357;52.806;18.268;2022-08-01T07:28:39;6.75;;;3.88;;
55497;SDS011;41357;52.806;18.268;2022-08-01T07:31:05;7.13;;;4.35;;
55497;SDS011;41357;52.806;18.268;2022-08-01T07:33:32;6.53;;;3.70;;
55497;SDS011;41357;52.806;18.268;2022-08-01T07:35:58;6.45;;;4.03;;
55497;SDS011;41357;52.806;18.268;2022-08-01T07:38:24;7.88;;;4.55;;
55497;SDS011;41357;52.806;18.268;2022-08-01T07:40:50;4.15;;;3.70;;
55497;SDS011;41357;52.806;18.268;2022-08-01T07:43:16;7.03;;;3.72;;
55497;SDS011;41357;52.806;18.268;2022-08-01T07:45:42;7.57;;;4.10;;
55497;SDS011;41357;52.806;18.268;2022-08-01T07:48:08;5.40;;;3.53;;
55497;SDS011;41357;52.806;18.268;2022-08-01T07:50:35;6.45;;;4.40;;
55497;SDS011;41357;52.806;18.268;2022-08-01T07:53:01;10.98;;;3.65;;
55497;SDS011;41357;52.806;18.268;2022-08-01T07:55:28;5.30;;;3.42;;
55497;SDS011;41357;52.806;18.268;2022-08-01T07:57:54;6.05;;;3.45;;
55497;SDS011;41357;52.806;18.268;2022-08-01T08:00:21;6.47;;;3.60;;
55497;SDS011;41357;52.806;18.268;2022-08-01T08:02:47;7.28;;;3.58;;
55497;SDS011;41357;52.806;18.268;2022-08-01T08:05:13;7.82;;;3.63;;
55497;SDS011;41357;52.806;18.268;2022-08-01T08:07:39;8.23;;;3.83;;
55497;SDS011;41357;52.806;18.268;2022-08-01T08:10:05;5.13;;;3.30;;
55497;SDS011;41357;52.806;18.268;2022-08-01T08:12:32;6.55;;;3.10;;
55497;SDS011;41357;52.806;18.268;2022-08-01T08:14:58;6.88;;;3.03;;
55497;SDS011;41357;52.806;18.268;2022-08-01T08:17:25;5.97;;;3.25;;
55497;SDS011;41357;52.806;18.268;2022-08-01T08:19:52;7.13;;;3.00;;
55497;SDS011;41357;52.806;18.268;2022-08-01T08:22:18;5.65;;;2.80;;
55497;SDS011;41357;52.806;18.268;2022-08-01T08:24:44;4.28;;;2.63;;
55497;SDS011;41357;52.806;18.268;2022-08-01T08:27:11;6.70;;;2.88;;
55497;SDS011;41357;52.806;18.268;2022-08-01T08:29:37;7.05;;;2.85;;
55497;SDS011;41357;52.806;18.268;2022-08-01T08:32:03;8.27;;;3.20;;
55497;SDS011;41357;52.806;18.268;2022-08-01T08:34:29;6.75;;;2.80;;
55497;SDS011;41357;52.806;18.268;2022-08-01T08:36:56;4.93;;;2.95;;
55497;SDS011;41357;52.806;18.268;2022-08-01T08:39:23;4.85;;;2.65;;
55497;SDS011;41357;52.806;18.268;2022-08-01T08:41:49;4.10;;;2.80;;
55497;SDS011;41357;52.806;18.268;2022-08-01T08:44:15;3.65;;;2.67;;
55497;SDS011;41357;52.806;18.268;2022-08-01T08:46:43;7.43;;;2.88;;
55497;SDS011;41357;52.806;18.268;2022-08-01T08:49:10;4.70;;;2.63;;
55497;SDS011;41357;52.806;18.268;2022-08-01T08:51:39;6.90;;;2.97;;
55497;SDS011;41357;52.806;18.268;2022-08-01T08:54:07;5.18;;;3.05;;
55497;SDS011;41357;52.806;18.268;2022-08-01T08:56:34;3.75;;;2.80;;
55497;SDS011;41357;52.806;18.268;2022-08-01T08:59:01;6.07;;;2.80;;
55497;SDS011;41357;52.806;18.268;2022-08-01T09:01:27;3.67;;;2.83;;
55497;SDS011;41357;52.806;18.268;2022-08-01T09:03:54;4.50;;;2.70;;
55497;SDS011;41357;52.806;18.268;2022-08-01T09:06:20;8.07;;;3.22;;
55497;SDS011;41357;52.806;18.268;2022-08-01T09:08:46;5.50;;;3.15;;
55497;SDS011;41357;52.806;18.268;2022-08-01T09:11:12;3.55;;;2.75;;
55497;SDS011;41357;52.806;18.268;2022-08-01T09:13:38;7.50;;;3.08;;
55497;SDS011;41357;52.806;18.268;2022-08-01T09:16:05;6.53;;;3.05;;
55497;SDS011;41357;52.806;18.268;2022-08-01T09:23:46;4.78;;;2.97;;
55497;SDS011;41357;52.806;18.268;2022-08-01T09:26:12;6.43;;;2.97;;
55497;SDS011;41357;52.806;18.268;2022-08-01T09:28:39;6.45;;;3.08;;
55497;SDS011;41357;52.806;18.268;2022-08-01T09:31:11;8.68;;;3.67;;
55497;SDS011;41357;52.806;18.268;2022-08-01T09:33:54;5.90;;;3.58;;
55497;SDS011;41357;52.806;18.268;2022-08-01T09:36:21;6.38;;;3.22;;
55497;SDS011;41357;52.806;18.268;2022-08-01T09:38:47;4.28;;;3.78;;
55497;SDS011;41357;52.806;18.268;2022-08-01T09:41:13;5.20;;;3.72;;
55497;SDS011;41357;52.806;18.268;2022-08-01T09:43:40;9.15;;;4.10;;
55497;SDS011;41357;52.806;18.268;2022-08-01T09:46:13;7.93;;;4.15;;
55497;SDS011;41357;52.806;18.268;2022-08-01T09:48:42;6.93;;;4.00;;
55497;SDS011;41357;52.806;18.268;2022-08-01T09:51:29;7.53;;;3.70;;
55497;SDS011;41357;52.806;18.268;2022-08-01T09:53:56;6.78;;;3.50;;
55497;SDS011;41357;52.806;18.268;2022-08-01T09:56:22;12.25;;;4.18;;
55497;SDS011;41357;52.806;18.268;2022-08-01T09:58:52;5.63;;;4.20;;
55497;SDS011;41357;52.806;18.268;2022-08-01T10:01:20;6.75;;;4.88;;
55497;SDS011;41357;52.806;18.268;2022-08-01T10:03:46;6.57;;;4.43;;
55497;SDS011;41357;52.806;18.268;2022-08-01T10:06:25;8.30;;;5.28;;
55497;SDS011;41357;52.806;18.268;2022-08-01T10:08:51;6.45;;;5.10;;
55497;SDS011;41357;52.806;18.268;2022-08-01T10:11:17;7.75;;;5.28;;
55497;SDS011;41357;52.806;18.268;2022-08-01T10:13:44;8.90;;;4.55;;
55497;SDS011;41357;52.806;18.268;2022-08-01T10:16:10;6.32;;;4.32;;
55497;SDS011;41357;52.806;18.268;2022-08-01T10:18:38;6.72;;;4.75;;
55497;SDS011;41357;52.806;18.268;2022-08-01T10:21:06;6.72;;;4.28;;
55497;SDS011;41357;52.806;18.268;2022-08-01T10:23:34;8.88;;;5.10;;
55497;SDS011;41357;52.806;18.268;2022-08-01T10:26:00;8.65;;;4.43;;
55497;SDS011;41357;52.806;18.268;2022-08-01T10:28:27;5.82;;;4.50;;
55497;SDS011;41357;52.806;18.268;2022-08-01T10:30:55;9.18;;;4.10;;
55497;SDS011;41357;52.806;18.268;2022-08-01T10:33:23;8.60;;;4.00;;
55497;SDS011;41357;52.806;18.268;2022-08-01T10:35:49;8.00;;;4.45;;
55497;SDS011;41357;52.806;18.268;2022-08-01T10:38:16;12.75;;;4.00;;
55497;SDS011;41357;52.806;18.268;2022-08-01T10:40:42;5.22;;;4.32;;
55497;SDS011;41357;52.806;18.268;2022-08-01T10:43:09;9.40;;;4.40;;
55497;SDS011;41357;52.806;18.268;2022-08-01T10:45:35;6.90;;;3.85;;
55497;SDS011;41357;52.806;18.268;2022-08-01T10:48:15;9.48;;;3.80;;
55497;SDS011;41357;52.806;18.268;2022-08-01T10:50:44;6.70;;;4.07;;
55497;SDS011;41357;52.806;18.268;2022-08-01T10:55:48;7.15;;;4.00;;
55497;SDS011;41357;52.806;18.268;2022-08-01T10:58:19;5.97;;;3.65;;
55497;SDS011;41357;52.806;18.268;2022-08-01T11:00:46;8.93;;;3.67;;
55497;SDS011;41357;52.806;18.268;2022-08-01T11:03:12;5.03;;;3.28;;
55497;SDS011;41357;52.806;18.268;2022-08-01T11:05:38;4.72;;;3.15;;
55497;SDS011;41357;52.806;18.268;2022-08-01T11:08:10;5.93;;;3.38;;
55497;SDS011;41357;52.806;18.268;2022-08-01T11:10:37;5.10;;;3.33;;
55497;SDS011;41357;52.806;18.268;2022-08-01T11:13:03;3.47;;;3.05;;
55497;SDS011;41357;52.806;18.268;2022-08-01T11:15:33;5.13;;;3.38;;
55497;SDS011;41357;52.806;18.268;2022-08-01T11:18:00;4.05;;;3.03;;
55497;SDS011;41357;52.806;18.268;2022-08-01T11:20:28;4.53;;;3.47;;
55497;SDS011;41357;52.806;18.268;2022-08-01T11:28:18;7.10;;;3.50;;
55497;SDS011;41357;52.806;18.268;2022-08-01T11:30:48;4.85;;;3.38;;
55497;SDS011;41357;52.806;18.268;2022-08-01T11:33:15;5.47;;;3.72;;
55497;SDS011;41357;52.806;18.268;2022-08-01T11:38:26;7.68;;;3.50;;
55497;SDS011;41357;52.806;18.268;2022-08-01T11:41:14;7.85;;;3.67;;
55497;SDS011;41357;52.806;18.268;2022-08-01T11:52:02;4.03;;;3.40;;
55497;SDS011;41357;52.806;18.268;2022-08-01T11:54:29;5.10;;;3.33;;
55497;SDS011;41357;52.806;18.268;2022-08-01T11:56:57;4.30;;;3.00;;
55497;SDS011;41357;52.806;18.268;2022-08-01T11:59:23;4.78;;;2.90;;
55497;SDS011;41357;52.806;18.268;2022-08-01T12:01:50;3.60;;;2.78;;
55497;SDS011;41357;52.806;18.268;2022-08-01T12:04:16;6.72;;;3.08;;
55497;SDS011;41357;52.806;18.268;2022-08-01T12:06:42;4.55;;;2.72;;
55497;SDS011;41357;52.806;18.268;2022-08-01T12:09:15;3.13;;;2.55;;
55497;SDS011;41357;52.806;18.268;2022-08-01T12:11:42;5.63;;;3.22;;
55497;SDS011;41357;52.806;18.268;2022-08-01T12:14:08;3.42;;;2.88;;
55497;SDS011;41357;52.806;18.268;2022-08-01T12:16:34;5.07;;;2.55;;
55497;SDS011;41357;52.806;18.268;2022-08-01T12:19:00;3.85;;;2.60;;
55497;SDS011;41357;52.806;18.268;2022-08-01T12:21:27;3.97;;;2.58;;
55497;SDS011;41357;52.806;18.268;2022-08-01T12:24:00;4.82;;;2.58;;
55497;SDS011;41357;52.806;18.268;2022-08-01T12:29:29;6.47;;;2.97;;
55497;SDS011;41357;52.806;18.268;2022-08-01T12:31:56;3.72;;;3.00;;
55497;SDS011;41357;52.806;18.268;2022-08-01T12:34:26;5.43;;;2.63;;
55497;SDS011;41357;52.806;18.268;2022-08-01T12:36:55;3.72;;;2.85;;
55497;SDS011;41357;52.806;18.268;2022-08-01T12:39:28;4.85;;;2.53;;
55497;SDS011;41357;52.806;18.268;2022-08-01T12:41:54;4.07;;;2.80;;
55497;SDS011;41357;52.806;18.268;2022-08-01T12:44:20;10.07;;;3.55;;
55497;SDS011;41357;52.806;18.268;2022-08-01T12:46:47;5.47;;;2.83;;
55497;SDS011;41357;52.806;18.268;2022-08-01T12:49:13;5.72;;;2.67;;
55497;SDS011;41357;52.806;18.268;2022-08-01T12:51:40;4.35;;;3.00;;
55497;SDS011;41357;52.806;18.268;2022-08-01T12:54:06;10.40;;;3.00;;
55497;SDS011;41357;52.806;18.268;2022-08-01T12:56:35;10.43;;;3.08;;
55497;SDS011;41357;52.806;18.268;2022-08-01T12:59:01;23.15;;;4.85;;
55497;SDS011;41357;52.806;18.268;2022-08-01T13:01:45;3.22;;;2.17;;
55497;SDS011;41357;52.806;18.268;2022-08-01T13:04:12;5.30;;;2.15;;
55497;SDS011;41357;52.806;18.268;2022-08-01T13:06:38;5.88;;;2.50;;
55497;SDS011;41357;52.806;18.268;2022-08-01T13:09:05;7.60;;;3.00;;
55497;SDS011;41357;52.806;18.268;2022-08-01T13:11:31;3.28;;;2.35;;
55497;SDS011;41357;52.806;18.268;2022-08-01T13:13:57;3.70;;;2.17;;
55497;SDS011;41357;52.806;18.268;2022-08-01T13:16:24;9.32;;;2.53;;
55497;SDS011;41357;52.806;18.268;2022-08-01T13:18:51;7.40;;;2.60;;
55497;SDS011;41357;52.806;18.268;2022-08-01T13:21:18;5.75;;;3.13;;
55497;SDS011;41357;52.806;18.268;2022-08-01T13:26:48;4.72;;;2.78;;
55497;SDS011;41357;52.806;18.268;2022-08-01T13:29:20;3.50;;;2.28;;
55497;SDS011;41357;52.806;18.268;2022-08-01T13:31:47;3.42;;;2.65;;
55497;SDS011;41357;52.806;18.268;2022-08-01T13:34:14;6.80;;;2.65;;
55497;SDS011;41357;52.806;18.268;2022-08-01T13:36:40;4.65;;;2.50;;
55497;SDS011;41357;52.806;18.268;2022-08-01T13:39:07;7.63;;;2.72;;
55497;SDS011;41357;52.806;18.268;2022-08-01T13:41:51;11.27;;;3.10;;
55497;SDS011;41357;52.806;18.268;2022-08-01T13:44:18;4.57;;;3.00;;
55497;SDS011;41357;52.806;18.268;2022-08-01T13:46:44;6.35;;;2.97;;
55497;SDS011;41357;52.806;18.268;2022-08-01T13:49:12;3.55;;;3.20;;
55497;SDS011;41357;52.806;18.268;2022-08-01T13:51:39;3.28;;;2.97;;
55497;SDS011;41357;52.806;18.268;2022-08-01T13:54:05;8.90;;;3.10;;
55497;SDS011;41357;52.806;18.268;2022-08-01T13:56:32;3.40;;;2.65;;
55497;SDS011;41357;52.806;18.268;2022-08-01T13:58:59;3.35;;;2.80;;
55497;SDS011;41357;52.806;18.268;2022-08-01T14:01:25;4.25;;;2.65;;
55497;SDS011;41357;52.806;18.268;2022-08-01T14:03:51;3.90;;;3.28;;
55497;SDS011;41357;52.806;18.268;2022-08-01T14:06:17;6.32;;;2.95;;
55497;SDS011;41357;52.806;18.268;2022-08-01T14:08:45;6.70;;;2.90;;
55497;SDS011;41357;52.806;18.268;2022-08-01T14:11:11;3.75;;;2.72;;
55497;SDS011;41357;52.806;18.268;2022-08-01T14:13:38;6.72;;;3.10;;
55497;SDS011;41357;52.806;18.268;2022-08-01T14:16:05;6.00;;;3.05;;
55497;SDS011;41357;52.806;18.268;2022-08-01T14:18:32;3.92;;;3.03;;
55497;SDS011;41357;52.806;18.268;2022-08-01T14:20:58;4.95;;;2.70;;
55497;SDS011;41357;52.806;18.268;2022-08-01T14:23:25;3.90;;;2.65;;
55497;SDS011;41357;52.806;18.268;2022-08-01T14:25:51;4.32;;;3.08;;
55497;SDS011;41357;52.806;18.268;2022-08-01T14:28:18;4.70;;;2.90;;
55497;SDS011;41357;52.806;18.268;2022-08-01T14:30:44;5.63;;;3.17;;
55497;SDS011;41357;52.806;18.268;2022-08-01T14:33:10;3.50;;;2.85;;
55497;SDS011;41357;52.806;18.268;2022-08-01T14:35:36;3.65;;;2.75;;
55497;SDS011;41357;52.806;18.268;2022-08-01T14:38:02;3.45;;;2.90;;
55497;SDS011;41357;52.806;18.268;2022-08-01T14:40:29;6.70;;;3.03;;
55497;SDS011;41357;52.806;18.268;2022-08-01T14:42:55;8.57;;;3.22;;
55497;SDS011;41357;52.806;18.268;2022-08-01T14:45:22;5.28;;;2.80;;
55497;SDS011;41357;52.806;18.268;2022-08-01T14:47:51;4.97;;;2.97;;
55497;SDS011;41357;52.806;18.268;2022-08-01T14:50:17;10.48;;;2.90;;
55497;SDS011;41357;52.806;18.268;2022-08-01T14:52:43;7.88;;;2.80;;
55497;SDS011;41357;52.806;18.268;2022-08-01T14:55:10;8.90;;;3.30;;
55497;SDS011;41357;52.806;18.268;2022-08-01T14:57:37;3.78;;;3.00;;
55497;SDS011;41357;52.806;18.268;2022-08-01T15:00:05;7.60;;;3.35;;
55497;SDS011;41357;52.806;18.268;2022-08-01T15:02:32;4.60;;;3.20;;
55497;SDS011;41357;52.806;18.268;2022-08-01T15:04:58;4.78;;;2.88;;
55497;SDS011;41357;52.806;18.268;2022-08-01T15:07:24;5.97;;;3.22;;
55497;SDS011;41357;52.806;18.268;2022-08-01T15:09:50;5.38;;;3.17;;
55497;SDS011;41357;52.806;18.268;2022-08-01T15:12:16;4.57;;;3.45;;
55497;SDS011;41357;52.806;18.268;2022-08-01T15:14:43;5.85;;;3.33;;
55497;SDS011;41357;52.806;18.268;2022-08-01T15:17:25;5.10;;;2.67;;
55497;SDS011;41357;52.806;18.268;2022-08-01T15:19:54;4.20;;;2.60;;